Time;durP1;ratioP1;P1;durP2;ratioP2;P2;SDS_P1;SDS_P2;PMS_P1;PMS_P2;Temp;Humidity;BMP_temperature;BMP_pressure;BME280_temperature;BME280_humidity;BME280_pressure;Samples;Min_cycle;Max_cycle;Signal;HPM_P1;HPM_P2
2021/12/23 00:01:44;;;;;;;16.33;10.95;;;7.00;96.70;;;;;;5009490;28;20455;-73
2021/12/23 00:04:13;;;;;;;14.65;9.82;;;6.80;96.70;;;;;;5005118;28;20660;-73
2021/12/23 00:06:44;;;;;;;12.80;9.00;;;6.80;96.70;;;;;;5024577;28;20044;-73
2021/12/23 00:09:12;;;;;;;11.90;7.80;;;6.90;96.70;;;;;;5008725;28;20059;-73
2021/12/23 00:11:41;;;;;;;10.50;6.55;;;7.00;96.70;;;;;;5023219;28;20098;-74
2021/12/23 00:14:11;;;;;;;8.82;6.30;;;7.00;96.70;;;;;;5006390;28;20041;-73
2021/12/23 00:16:49;;;;;;;9.57;6.10;;;7.00;96.70;;;;;;5008924;28;20136;-73
2021/12/23 00:24:34;;;;;;;;;;;6.90;96.70;;;;;;5021732;28;20428;-74
2021/12/23 00:27:03;;;;;;;10.32;6.72;;;6.90;96.70;;;;;;5023429;28;20322;-74
2021/12/23 00:29:33;;;;;;;11.60;7.00;;;6.90;96.70;;;;;;5003878;28;20060;-73
2021/12/23 00:32:05;;;;;;;8.30;6.47;;;6.90;96.70;;;;;;5009219;28;20056;-74
2021/12/23 00:34:34;;;;;;;10.35;6.32;;;6.80;96.70;;;;;;5023171;28;20049;-73
2021/12/23 00:37:03;;;;;;;9.18;6.38;;;6.80;96.70;;;;;;4991993;28;20071;-73
2021/12/23 00:39:32;;;;;;;9.63;6.18;;;6.70;96.70;;;;;;5027708;28;20048;-73
2021/12/23 00:42:07;;;;;;;9.52;6.22;;;6.70;96.70;;;;;;5024624;28;20579;-74
2021/12/23 00:44:47;;;;;;;8.68;5.75;;;6.70;96.70;;;;;;5023494;28;20048;-73
2021/12/23 00:47:15;;;;;;;8.95;5.97;;;6.70;96.70;;;;;;5022523;28;20125;-73
2021/12/23 00:49:43;;;;;;;10.85;6.45;;;6.70;96.70;;;;;;5025841;28;20040;-73
2021/12/23 00:52:12;;;;;;;7.63;5.45;;;6.80;96.70;;;;;;4991112;28;20049;-73
2021/12/23 00:54:40;;;;;;;11.60;6.20;;;6.80;96.70;;;;;;5010719;28;20041;-73
2021/12/23 00:57:09;;;;;;;9.40;6.65;;;6.80;96.70;;;;;;5020758;28;20045;-73
2021/12/23 00:59:39;;;;;;;8.15;6.45;;;6.70;96.70;;;;;;5006494;28;20119;-73
2021/12/23 01:02:09;;;;;;;7.95;6.10;;;6.70;96.70;;;;;;5027174;28;20130;-73
2021/12/23 01:04:38;;;;;;;8.18;5.90;;;6.70;96.70;;;;;;5006697;28;20072;-74
2021/12/23 01:07:06;;;;;;;7.63;6.20;;;6.70;96.70;;;;;;5022294;28;20120;-73
2021/12/23 01:09:35;;;;;;;9.73;6.07;;;6.80;96.70;;;;;;5004959;28;20037;-74
2021/12/23 01:12:04;;;;;;;9.07;6.40;;;6.90;96.70;;;;;;5006445;28;20046;-73
2021/12/23 01:14:42;;;;;;;7.90;6.00;;;6.80;96.70;;;;;;5024900;28;20494;-73
2021/12/23 01:19:41;;;;;;;9.98;6.88;;;6.90;96.70;;;;;;5003498;28;20045;-73
2021/12/23 01:22:09;;;;;;;8.90;6.75;;;6.90;96.70;;;;;;5005641;28;20069;-74
2021/12/23 01:24:37;;;;;;;9.15;7.03;;;6.90;96.70;;;;;;5006242;28;20040;-74
2021/12/23 01:27:06;;;;;;;10.25;7.30;;;7.00;96.70;;;;;;5006962;28;20045;-74
2021/12/23 01:29:34;;;;;;;11.25;7.32;;;7.00;96.70;;;;;;5002328;28;20040;-75
2021/12/23 01:32:05;;;;;;;9.82;6.68;;;7.00;96.70;;;;;;5005962;28;20060;-74
2021/12/23 01:34:36;;;;;;;9.05;6.75;;;6.90;96.70;;;;;;5022888;28;20045;-75
2021/12/23 01:37:06;;;;;;;8.30;6.40;;;6.90;96.70;;;;;;5007507;28;20048;-75
2021/12/23 01:39:34;;;;;;;8.88;6.82;;;6.90;96.70;;;;;;5005768;28;20072;-74
2021/12/23 01:42:03;;;;;;;11.73;6.65;;;6.90;96.70;;;;;;5009395;28;20053;-74
2021/12/23 01:44:32;;;;;;;7.90;5.80;;;6.90;96.70;;;;;;5003441;28;20491;-74
2021/12/23 01:47:00;;;;;;;9.75;6.85;;;7.00;96.70;;;;;;5003633;28;20522;-74
2021/12/23 01:49:29;;;;;;;10.20;6.45;;;7.00;96.70;;;;;;5000575;28;20060;-75
2021/12/23 01:51:58;;;;;;;10.90;6.70;;;6.90;96.70;;;;;;5008169;28;20044;-74
2021/12/23 01:54:27;;;;;;;10.90;6.90;;;6.90;96.70;;;;;;5002348;28;20048;-74
2021/12/23 01:56:55;;;;;;;9.50;6.80;;;6.80;96.70;;;;;;5006529;28;20044;-74
2021/12/23 01:59:23;;;;;;;9.02;6.55;;;6.90;96.70;;;;;;5007014;28;20060;-74
2021/12/23 02:01:52;;;;;;;11.27;7.30;;;6.90;96.70;;;;;;5023407;28;20037;-74
2021/12/23 02:04:20;;;;;;;11.20;7.65;;;6.90;96.70;;;;;;5004360;28;20091;-74
2021/12/23 02:06:48;;;;;;;10.35;6.70;;;6.80;96.70;;;;;;4992874;28;20038;-74
2021/12/23 02:09:18;;;;;;;11.65;7.68;;;6.90;96.70;;;;;;5022237;28;20124;-74
2021/12/23 02:11:46;;;;;;;11.57;8.85;;;6.90;96.70;;;;;;5006472;28;20136;-74
2021/12/23 02:14:18;;;;;;;10.60;7.60;;;7.00;96.70;;;;;;5005694;28;20045;-75
2021/12/23 02:16:46;;;;;;;11.10;8.10;;;6.90;96.70;;;;;;5023240;28;20051;-75
2021/12/23 02:19:17;;;;;;;10.55;7.75;;;6.90;96.70;;;;;;5020724;28;20121;-74
2021/12/23 02:21:48;;;;;;;9.73;7.00;;;6.90;96.70;;;;;;5027076;28;20563;-74
2021/12/23 02:24:17;;;;;;;11.32;7.68;;;7.00;96.70;;;;;;5007283;28;20199;-74
2021/12/23 02:26:47;;;;;;;10.27;7.53;;;7.00;96.70;;;;;;4987497;28;20065;-74
2021/12/23 02:29:15;;;;;;;10.52;6.90;;;7.00;96.70;;;;;;5005935;28;20045;-74
2021/12/23 02:31:48;;;;;;;10.00;7.20;;;7.00;96.70;;;;;;5004141;28;20040;-75
2021/12/23 02:34:19;;;;;;;9.07;6.63;;;7.00;96.70;;;;;;5006666;28;20049;-74
2021/12/23 02:36:53;;;;;;;7.95;6.13;;;7.00;96.70;;;;;;5004462;28;20056;-75
2021/12/23 02:39:23;;;;;;;10.73;6.95;;;6.90;96.70;;;;;;5025750;28;20053;-74
2021/12/23 02:41:55;;;;;;;9.20;6.72;;;6.80;96.70;;;;;;4985251;28;20519;-74
2021/12/23 02:44:23;;;;;;;9.18;6.35;;;6.70;96.70;;;;;;4982620;28;20049;-75
2021/12/23 02:46:54;;;;;;;10.43;6.65;;;6.70;96.70;;;;;;4984624;28;20909;-74
2021/12/23 02:49:25;;;;;;;13.52;7.00;;;6.80;96.70;;;;;;4984001;28;21486;-74
2021/12/23 02:52:00;;;;;;;9.75;7.00;;;6.70;96.70;;;;;;4984294;28;20120;-74
2021/12/23 02:54:28;;;;;;;11.68;7.32;;;6.60;96.70;;;;;;4978333;28;20060;-75
2021/12/23 02:56:56;;;;;;;9.25;6.60;;;6.60;96.70;;;;;;4982285;28;20066;-74
2021/12/23 02:59:24;;;;;;;9.05;6.57;;;6.70;96.70;;;;;;4960122;28;20105;-74
2021/12/23 03:01:52;;;;;;;9.52;6.60;;;6.70;96.70;;;;;;4994189;28;20141;-74
2021/12/23 03:04:28;;;;;;;10.40;6.75;;;6.70;96.70;;;;;;4969799;28;20157;-74
2021/12/23 03:06:56;;;;;;;8.40;6.65;;;6.70;96.70;;;;;;4962059;28;20055;-74
2021/12/23 03:09:25;;;;;;;9.90;6.50;;;6.70;96.70;;;;;;4964091;28;20395;-74
2021/12/23 03:11:54;;;;;;;10.20;6.47;;;6.70;96.70;;;;;;4957604;28;20101;-74
2021/12/23 03:14:25;;;;;;;8.25;6.30;;;6.70;96.70;;;;;;4956717;28;20042;-73
2021/12/23 03:16:53;;;;;;;10.73;6.45;;;6.70;96.70;;;;;;4978050;28;20059;-73
2021/12/23 03:19:23;;;;;;;9.90;6.82;;;6.50;96.70;;;;;;4977752;28;20053;-74
2021/12/23 03:21:51;;;;;;;15.95;10.32;;;6.60;96.70;;;;;;4978636;28;20546;-74
2021/12/23 03:24:19;;;;;;;12.30;7.78;;;6.50;96.70;;;;;;4975385;28;20058;-73
2021/12/23 03:26:50;;;;;;;11.48;7.22;;;6.60;96.70;;;;;;4964004;28;20065;-73
2021/12/23 03:29:18;;;;;;;15.68;9.30;;;6.60;96.70;;;;;;4971021;28;20807;-73
2021/12/23 03:31:47;;;;;;;9.77;7.68;;;6.60;96.70;;;;;;4945033;28;20060;-73
2021/12/23 03:34:15;;;;;;;11.63;7.35;;;6.60;96.70;;;;;;4963639;28;20046;-73
2021/12/23 03:36:43;;;;;;;8.73;6.38;;;6.60;96.70;;;;;;4945522;28;20046;-74
2021/12/23 03:39:11;;;;;;;9.02;6.50;;;6.60;96.70;;;;;;4958183;28;20043;-73
2021/12/23 03:41:39;;;;;;;8.50;6.22;;;6.60;96.70;;;;;;4977540;28;20038;-74
2021/12/23 03:44:08;;;;;;;9.15;6.03;;;6.60;96.70;;;;;;4944750;28;20073;-74
2021/12/23 03:46:37;;;;;;;8.07;6.13;;;6.60;96.70;;;;;;4950352;28;20466;-74
2021/12/23 03:49:06;;;;;;;8.30;5.85;;;6.60;96.70;;;;;;4962025;28;20140;-74
2021/12/23 03:51:36;;;;;;;7.47;5.43;;;6.70;96.70;;;;;;4974072;28;20046;-74
2021/12/23 03:54:04;;;;;;;9.13;6.78;;;6.80;96.70;;;;;;4957700;28;20034;-74
2021/12/23 03:56:32;;;;;;;9.73;6.25;;;6.70;96.70;;;;;;4977460;28;20114;-73
2021/12/23 03:59:03;;;;;;;8.63;6.38;;;6.80;96.70;;;;;;4959947;28;20133;-74
2021/12/23 04:01:41;;;;;;;9.75;6.50;;;6.70;96.70;;;;;;4972276;28;20121;-74
2021/12/23 04:04:09;;;;;;;9.00;6.00;;;6.70;96.70;;;;;;4992048;28;20085;-74
2021/12/23 04:06:37;;;;;;;7.85;5.97;;;6.80;96.70;;;;;;4996511;28;20042;-74
2021/12/23 04:09:06;;;;;;;8.38;5.95;;;6.80;96.70;;;;;;5000279;28;20038;-74
2021/12/23 04:11:34;;;;;;;9.48;6.68;;;6.80;96.70;;;;;;4982205;28;20086;-74
2021/12/23 04:14:03;;;;;;;8.95;6.10;;;6.80;96.70;;;;;;5001262;28;20124;-74
2021/12/23 04:16:31;;;;;;;7.78;5.82;;;6.90;96.70;;;;;;4971119;28;20045;-73
2021/12/23 04:19:05;;;;;;;8.68;6.47;;;6.90;96.70;;;;;;4993256;28;20045;-74
2021/12/23 04:21:34;;;;;;;7.60;5.90;;;7.00;96.70;;;;;;4983357;28;20042;-74
2021/12/23 04:24:03;;;;;;;7.85;6.03;;;6.90;96.70;;;;;;4980446;28;20125;-73
2021/12/23 04:26:31;;;;;;;8.23;5.82;;;6.90;96.70;;;;;;4979649;28;20136;-74
2021/12/23 04:28:59;;;;;;;9.13;6.13;;;6.90;96.70;;;;;;5000990;28;20038;-73
2021/12/23 04:31:27;;;;;;;8.18;5.63;;;7.00;96.70;;;;;;4989849;28;21039;-73
2021/12/23 04:33:55;;;;;;;8.25;6.00;;;6.90;96.70;;;;;;4996736;28;20467;-74
2021/12/23 04:36:29;;;;;;;10.45;5.95;;;6.90;96.70;;;;;;4982642;28;20042;-74
2021/12/23 04:39:00;;;;;;;8.07;5.45;;;6.90;96.70;;;;;;4987271;28;20038;-73
2021/12/23 04:41:30;;;;;;;7.68;5.65;;;6.80;96.70;;;;;;4993499;28;20440;-73
2021/12/23 04:43:59;;;;;;;8.60;6.05;;;6.90;96.70;;;;;;4975720;28;20058;-74
2021/12/23 04:46:27;;;;;;;7.55;5.47;;;6.90;96.70;;;;;;4996937;28;20502;-74
2021/12/23 04:48:55;;;;;;;7.38;5.35;;;6.90;96.70;;;;;;4992019;28;20042;-74
2021/12/23 04:51:25;;;;;;;7.82;6.10;;;6.80;96.70;;;;;;4980309;28;20035;-73
2021/12/23 04:53:53;;;;;;;8.60;6.32;;;6.80;96.70;;;;;;4993866;28;20412;-73
2021/12/23 04:56:24;;;;;;;9.05;5.93;;;6.80;96.70;;;;;;4982813;28;20046;-74
2021/12/23 04:58:52;;;;;;;6.80;5.15;;;6.80;96.70;;;;;;4982105;28;20053;-74
2021/12/23 05:01:27;;;;;;;8.13;6.35;;;6.80;96.70;;;;;;4998647;28;20617;-73
2021/12/23 05:03:55;;;;;;;9.32;6.38;;;6.80;96.70;;;;;;4979545;28;20136;-74
2021/12/23 05:06:28;;;;;;;9.77;6.55;;;6.70;96.70;;;;;;4982262;28;20141;-73
2021/12/23 05:08:56;;;;;;;8.50;6.78;;;6.80;96.70;;;;;;4980074;28;20431;-73
2021/12/23 05:11:24;;;;;;;11.20;7.70;;;6.80;96.70;;;;;;5002810;28;20044;-73
2021/12/23 05:13:52;;;;;;;10.10;7.45;;;6.80;96.70;;;;;;4993708;28;20046;-73
2021/12/23 05:16:20;;;;;;;10.40;8.07;;;6.70;96.70;;;;;;4979183;28;20537;-73
2021/12/23 05:18:48;;;;;;;10.68;7.82;;;6.70;96.70;;;;;;4978533;28;20874;-73
2021/12/23 05:21:16;;;;;;;13.20;8.55;;;6.80;96.70;;;;;;4994873;28;20042;-74
2021/12/23 05:23:46;;;;;;;11.00;8.23;;;6.80;96.70;;;;;;4991971;28;20049;-73
2021/12/23 05:26:14;;;;;;;10.77;8.38;;;6.80;96.70;;;;;;4991826;28;20042;-74
2021/12/23 05:28:42;;;;;;;11.07;8.73;;;6.80;96.70;;;;;;4994192;28;20040;-74
2021/12/23 05:31:10;;;;;;;12.90;8.55;;;6.70;96.70;;;;;;4979946;28;20683;-73
2021/12/23 05:33:38;;;;;;;10.45;7.95;;;6.80;96.70;;;;;;4987540;28;20118;-73
2021/12/23 05:36:06;;;;;;;13.00;8.88;;;6.80;96.70;;;;;;4996244;28;20122;-73
2021/12/23 05:38:34;;;;;;;11.95;9.35;;;6.80;96.70;;;;;;4982282;28;20108;-73
2021/12/23 05:41:04;;;;;;;15.38;10.43;;;6.80;96.70;;;;;;4991634;28;20080;-73
2021/12/23 05:43:32;;;;;;;12.98;9.50;;;6.80;96.70;;;;;;4993381;28;20050;-73
2021/12/23 05:46:00;;;;;;;12.77;8.98;;;6.90;96.70;;;;;;4999273;28;20125;-73
2021/12/23 05:48:28;;;;;;;13.13;8.93;;;6.90;96.70;;;;;;4979690;28;20035;-73
2021/12/23 05:50:56;;;;;;;11.00;8.23;;;6.90;96.70;;;;;;4982770;28;20042;-73
2021/12/23 05:53:25;;;;;;;11.20;8.40;;;6.90;96.70;;;;;;4994114;28;20061;-73
2021/12/23 05:55:53;;;;;;;12.35;9.10;;;6.90;96.70;;;;;;4965880;28;20042;-73
2021/12/23 05:58:23;;;;;;;11.00;8.63;;;6.90;96.70;;;;;;4984907;28;20066;-73
2021/12/23 06:00:53;;;;;;;13.68;9.27;;;6.90;96.70;;;;;;4980787;28;20128;-73
2021/12/23 06:03:21;;;;;;;10.85;8.63;;;6.90;96.70;;;;;;4977828;28;20066;-73
2021/12/23 06:05:49;;;;;;;12.18;9.32;;;7.00;96.70;;;;;;4998962;28;20053;-73
2021/12/23 06:08:17;;;;;;;13.77;9.55;;;7.00;96.70;;;;;;4993038;28;20034;-73
2021/12/23 06:10:45;;;;;;;12.15;8.80;;;7.00;96.70;;;;;;4968624;28;20346;-73
2021/12/23 06:13:13;;;;;;;11.80;8.25;;;7.00;96.70;;;;;;4998378;28;20038;-73
2021/12/23 06:15:43;;;;;;;13.23;8.48;;;6.90;96.70;;;;;;4983566;28;20046;-73
2021/12/23 06:18:16;;;;;;;13.57;9.10;;;6.90;96.70;;;;;;4993992;28;20093;-73
2021/12/23 06:20:44;;;;;;;10.40;8.80;;;6.90;96.70;;;;;;4982420;28;20046;-73
2021/12/23 06:23:13;;;;;;;11.60;8.60;;;6.90;96.70;;;;;;4996743;28;20566;-73
2021/12/23 06:25:41;;;;;;;13.40;9.48;;;6.90;96.70;;;;;;4978844;28;20060;-73
2021/12/23 06:28:12;;;;;;;11.98;9.00;;;6.90;96.70;;;;;;4984567;28;20074;-73
2021/12/23 06:30:42;;;;;;;13.57;9.77;;;6.90;96.70;;;;;;4980554;28;20049;-73
2021/12/23 06:33:11;;;;;;;13.00;9.18;;;6.90;96.70;;;;;;5000154;28;20058;-73
2021/12/23 06:35:40;;;;;;;13.95;9.10;;;6.90;96.70;;;;;;4983068;28;20061;-73
2021/12/23 06:38:10;;;;;;;13.07;9.77;;;6.90;96.70;;;;;;4982828;28;20574;-73
2021/12/23 06:40:39;;;;;;;13.73;8.73;;;6.90;96.70;;;;;;4978127;28;20073;-73
2021/12/23 06:43:07;;;;;;;11.85;8.82;;;6.90;96.70;;;;;;5004086;28;20408;-73
2021/12/23 06:45:35;;;;;;;11.98;8.40;;;6.90;96.70;;;;;;4980412;28;20057;-73
2021/12/23 06:48:06;;;;;;;12.05;8.40;;;6.90;96.70;;;;;;4996374;28;20037;-73
2021/12/23 06:50:34;;;;;;;12.27;8.75;;;6.90;96.70;;;;;;4972935;28;20136;-72
2021/12/23 06:53:02;;;;;;;12.52;8.32;;;6.90;96.70;;;;;;4994992;28;20574;-73
2021/12/23 06:55:30;;;;;;;10.88;8.35;;;6.90;96.70;;;;;;4966043;28;20137;-73
2021/12/23 06:57:58;;;;;;;11.63;8.75;;;7.00;96.70;;;;;;4985718;28;20040;-73
2021/12/23 07:00:28;;;;;;;12.00;8.57;;;7.00;96.70;;;;;;4978748;28;20431;-73
2021/12/23 07:02:57;;;;;;;10.25;7.97;;;6.90;96.70;;;;;;5001499;28;20053;-73
2021/12/23 07:05:27;;;;;;;14.43;8.75;;;7.00;96.70;;;;;;4996928;28;20045;-73
2021/12/23 07:07:57;;;;;;;11.80;8.02;;;7.00;96.70;;;;;;4979920;28;20042;-73
2021/12/23 07:10:27;;;;;;;16.63;7.80;;;7.10;96.70;;;;;;4994633;28;20407;-72
2021/12/23 07:12:57;;;;;;;10.90;7.95;;;7.00;96.70;;;;;;4998888;28;20052;-72
2021/12/23 07:15:26;;;;;;;10.20;7.95;;;7.00;96.70;;;;;;4999878;28;20488;-73
2021/12/23 07:17:56;;;;;;;12.75;8.63;;;7.00;96.70;;;;;;4996218;28;20050;-72
2021/12/23 07:20:27;;;;;;;11.50;8.05;;;7.00;96.70;;;;;;4996624;28;20300;-73
2021/12/23 07:22:55;;;;;;;20.15;9.77;;;6.90;96.70;;;;;;4980816;28;20048;-72
2021/12/23 07:25:23;;;;;;;14.65;9.20;;;6.90;96.70;;;;;;4983215;28;20191;-72
2021/12/23 07:27:52;;;;;;;15.98;9.93;;;6.90;96.70;;;;;;4983460;28;20474;-72
2021/12/23 07:30:21;;;;;;;14.00;10.23;;;7.00;96.70;;;;;;4998570;28;20531;-72
2021/12/23 07:32:50;;;;;;;16.35;9.93;;;6.90;96.70;;;;;;4984843;28;20042;-73
2021/12/23 07:35:19;;;;;;;14.25;9.80;;;6.90;96.70;;;;;;5004288;28;20038;-73
2021/12/23 07:37:49;;;;;;;14.38;9.70;;;6.90;96.70;;;;;;4976885;28;20064;-72
2021/12/23 07:40:17;;;;;;;12.98;8.98;;;7.00;96.70;;;;;;4996248;28;20053;-73
2021/12/23 07:43:09;;;;;;;13.48;8.05;;;6.90;96.70;;;;;;4997827;28;20038;-72
2021/12/23 07:45:38;;;;;;;12.02;8.18;;;7.00;96.70;;;;;;4982095;28;20080;-73
2021/12/23 07:48:06;;;;;;;12.65;8.55;;;7.00;96.70;;;;;;4979941;28;20171;-72
2021/12/23 07:50:34;;;;;;;11.18;8.43;;;7.00;96.70;;;;;;4974816;28;20463;-72
2021/12/23 07:53:04;;;;;;;12.35;9.25;;;7.00;96.70;;;;;;4980089;28;20045;-72
2021/12/23 07:55:32;;;;;;;15.07;9.15;;;7.00;96.70;;;;;;4986954;28;20033;-72
2021/12/23 07:58:00;;;;;;;17.02;10.00;;;7.00;96.70;;;;;;4985019;28;20085;-72
2021/12/23 08:00:29;;;;;;;12.82;9.50;;;7.00;96.70;;;;;;4984733;28;20054;-72
2021/12/23 08:02:57;;;;;;;15.25;10.13;;;7.00;96.70;;;;;;4985167;28;20096;-73
2021/12/23 08:05:26;;;;;;;15.13;8.35;;;7.10;96.70;;;;;;4998690;28;20038;-72
2021/12/23 08:07:55;;;;;;;14.43;8.25;;;7.10;96.70;;;;;;4966967;28;20046;-73
2021/12/23 08:10:25;;;;;;;13.45;8.90;;;7.10;96.70;;;;;;4999103;28;20054;-74
2021/12/23 08:12:53;;;;;;;10.43;8.25;;;7.10;96.70;;;;;;4997763;28;20490;-73
2021/12/23 08:15:21;;;;;;;11.88;8.50;;;7.10;96.70;;;;;;4999268;28;20088;-74
2021/12/23 08:17:50;;;;;;;10.55;7.70;;;7.20;96.70;;;;;;4978320;28;20692;-74
2021/12/23 08:20:18;;;;;;;13.32;7.93;;;7.20;96.70;;;;;;4985851;28;20862;-73
2021/12/23 08:22:47;;;;;;;8.57;7.05;;;7.20;96.70;;;;;;4973352;28;20503;-74
2021/12/23 08:25:16;;;;;;;11.63;7.78;;;7.20;96.70;;;;;;5000278;28;20054;-73
2021/12/23 08:27:45;;;;;;;12.63;7.22;;;7.10;96.70;;;;;;4982642;28;20069;-73
2021/12/23 08:30:20;;;;;;;9.73;7.75;;;7.30;96.70;;;;;;4980268;28;20061;-73
2021/12/23 08:32:49;;;;;;;9.57;7.00;;;7.30;96.70;;;;;;4979639;28;20444;-73
2021/12/23 08:35:19;;;;;;;11.77;7.20;;;7.30;96.70;;;;;;4996454;28;20412;-74
2021/12/23 08:37:49;;;;;;;11.05;7.38;;;7.40;96.70;;;;;;4995810;28;20042;-74
2021/12/23 08:40:22;;;;;;;20.33;8.48;;;7.50;96.70;;;;;;4962284;28;20050;-73
2021/12/23 08:42:53;;;;;;;9.23;7.35;;;7.50;96.70;;;;;;4986189;28;20045;-74
2021/12/23 08:45:22;;;;;;;9.05;7.07;;;7.60;96.70;;;;;;4991276;28;20129;-73
2021/12/23 08:47:50;;;;;;;11.82;7.07;;;7.70;96.70;;;;;;4986892;28;20065;-73
2021/12/23 08:50:19;;;;;;;10.15;7.22;;;7.70;96.70;;;;;;4982406;28;20046;-73
2021/12/23 08:52:48;;;;;;;10.95;7.60;;;7.70;96.70;;;;;;4966861;28;20493;-73
2021/12/23 08:55:16;;;;;;;10.02;6.68;;;7.70;96.70;;;;;;4977141;28;20054;-73
2021/12/23 08:57:45;;;;;;;9.10;7.18;;;7.70;96.70;;;;;;4985266;28;20046;-74
2021/12/23 09:00:18;;;;;;;8.73;6.32;;;7.70;96.70;;;;;;4991138;28;20038;-74
2021/12/23 09:02:48;;;;;;;8.63;6.70;;;7.80;96.70;;;;;;4996450;28;20127;-74
2021/12/23 09:05:19;;;;;;;8.63;6.55;;;7.80;96.70;;;;;;4998249;28;20619;-73
2021/12/23 09:07:48;;;;;;;9.57;6.80;;;7.80;96.70;;;;;;4982728;28;20034;-73
2021/12/23 09:10:16;;;;;;;10.68;6.45;;;7.80;96.70;;;;;;4984903;28;20176;-74
2021/12/23 09:12:44;;;;;;;9.25;6.57;;;7.90;96.70;;;;;;4982232;28;20526;-73
2021/12/23 09:15:14;;;;;;;11.25;7.35;;;7.90;96.70;;;;;;4999539;28;20151;-73
2021/12/23 09:17:42;;;;;;;10.18;7.32;;;7.90;96.70;;;;;;4984355;28;20074;-72
2021/12/23 09:20:14;;;;;;;8.27;6.70;;;7.90;96.70;;;;;;4997538;28;20797;-72
2021/12/23 09:22:43;;;;;;;10.95;7.00;;;7.90;96.70;;;;;;4961183;28;20049;-72
2021/12/23 09:25:19;;;;;;;10.73;8.00;;;8.00;96.70;;;;;;4989110;28;20049;-72
2021/12/23 09:33:24;;;;;;;11.88;8.18;;;8.10;96.70;;;;;;4995507;28;20042;-72
2021/12/23 09:35:53;;;;;;;11.40;7.78;;;8.10;96.70;;;;;;4980165;28;20046;-73
2021/12/23 09:38:27;;;;;;;11.07;8.00;;;8.20;96.70;;;;;;4999241;28;20084;-72
2021/12/23 09:40:59;;;;;;;9.75;7.15;;;8.20;96.70;;;;;;4994119;28;20085;-72
2021/12/23 09:43:29;;;;;;;10.10;7.55;;;8.20;96.70;;;;;;4971895;28;20137;-73
2021/12/23 09:45:59;;;;;;;9.68;7.43;;;8.30;96.70;;;;;;4994400;28;20049;-73
2021/12/23 09:48:29;;;;;;;12.00;8.75;;;8.30;96.70;;;;;;4995712;28;20046;-72
2021/12/23 09:51:02;;;;;;;16.02;11.30;;;8.40;96.70;;;;;;4978648;28;20074;-72
2021/12/23 09:53:32;;;;;;;16.88;10.13;;;8.50;96.70;;;;;;4977668;28;20562;-72
2021/12/23 09:56:01;;;;;;;17.25;11.43;;;8.50;96.70;;;;;;4993400;28;20452;-72
2021/12/23 09:58:30;;;;;;;18.17;11.35;;;8.60;96.70;;;;;;4976246;28;20096;-72
2021/12/23 10:01:00;;;;;;;17.80;10.73;;;8.60;96.70;;;;;;4984169;28;20470;-72
2021/12/23 10:03:29;;;;;;;17.80;12.38;;;8.70;96.70;;;;;;4966220;28;20138;-72
2021/12/23 10:05:59;;;;;;;23.65;17.98;;;8.70;96.70;;;;;;4981647;28;20554;-73
2021/12/23 10:08:28;;;;;;;16.83;12.20;;;8.70;96.70;;;;;;4999062;28;20052;-71
2021/12/23 10:11:15;;;;;;;14.82;11.27;;;8.80;96.70;;;;;;4978855;28;20038;-70
2021/12/23 10:31:25;;;;;;;;;;;9.20;96.70;;;;;;4998745;28;20045;-70
2021/12/23 10:37:16;;;;;;;11.80;8.15;;;9.20;96.70;;;;;;4997817;28;20293;-70
2021/12/23 10:39:47;;;;;;;11.13;8.43;;;9.20;96.70;;;;;;4983376;28;20057;-71
2021/12/23 10:42:18;;;;;;;13.95;8.85;;;9.10;96.70;;;;;;4985153;28;20534;-72
2021/12/23 10:44:53;;;;;;;12.23;8.50;;;9.00;96.70;;;;;;4995771;28;20045;-71
2021/12/23 10:47:30;;;;;;;10.27;7.68;;;9.00;96.70;;;;;;4982237;28;20409;-71
2021/12/23 10:50:14;;;;;;;12.43;8.90;;;9.00;96.70;;;;;;4976478;28;20045;-74
2021/12/23 10:52:54;;;;;;;11.00;8.07;;;9.00;96.70;;;;;;5000786;28;20141;-73
2021/12/23 10:58:06;;;;;;;12.25;7.93;;;9.00;96.70;;;;;;4987147;28;20064;-72
2021/12/23 11:00:38;;;;;;;10.35;7.90;;;9.00;96.70;;;;;;4988808;28;21032;-71
2021/12/23 11:03:16;;;;;;;9.05;7.60;;;9.00;96.70;;;;;;4982450;28;20042;-70
2021/12/23 11:06:01;;;;;;;12.48;8.70;;;9.00;96.70;;;;;;4966992;28;20046;-71
2021/12/23 11:39:23;;;;;;;15.85;11.52;;;8.90;96.70;;;;;;4974831;28;20034;-72
2021/12/23 11:42:15;;;;;;;15.40;11.43;;;8.90;96.70;;;;;;4946207;28;20544;-72
2021/12/23 11:44:43;;;;;;;15.23;11.10;;;8.90;96.70;;;;;;4969907;28;20462;-72
2021/12/23 11:47:15;;;;;;;12.85;10.18;;;8.90;96.70;;;;;;4960070;28;20080;-73
2021/12/23 11:49:46;;;;;;;16.75;10.90;;;8.90;96.70;;;;;;4965159;28;20056;-72
2021/12/23 11:52:15;;;;;;;14.93;10.65;;;8.90;96.70;;;;;;4980922;28;20500;-73
2021/12/23 11:54:47;;;;;;;12.75;10.70;;;8.90;96.70;;;;;;4982094;28;20040;-73
2021/12/23 11:57:21;;;;;;;13.82;9.55;;;8.90;96.70;;;;;;4965135;28;20100;-72
2021/12/23 12:00:01;;;;;;;14.93;10.65;;;8.90;96.70;;;;;;4979915;28;20049;-72
2021/12/23 12:02:33;;;;;;;12.07;9.45;;;8.80;96.70;;;;;;4976956;28;20053;-73
2021/12/23 12:05:05;;;;;;;13.20;9.85;;;8.80;96.70;;;;;;4940384;28;20049;-72
2021/12/23 12:07:39;;;;;;;15.30;9.13;;;8.80;96.70;;;;;;4953989;28;20468;-72
2021/12/23 12:10:12;;;;;;;13.90;9.70;;;8.80;96.70;;;;;;4960572;28;20444;-72
2021/12/23 12:12:57;;;;;;;14.15;11.20;;;8.80;96.70;;;;;;4976655;28;20096;-72
2021/12/23 12:15:47;;;;;;;15.50;10.55;;;8.90;96.70;;;;;;4976709;28;20531;-72
2021/12/23 12:18:19;;;;;;;14.15;9.75;;;8.80;96.70;;;;;;4984140;28;20049;-72
2021/12/23 12:20:52;;;;;;;13.82;10.50;;;8.90;96.70;;;;;;4970426;28;20101;-72
2021/12/23 12:23:22;;;;;;;14.98;11.35;;;8.90;96.70;;;;;;4982498;28;20042;-72
2021/12/23 12:26:04;;;;;;;14.95;10.95;;;8.90;96.70;;;;;;4971838;28;20048;-72
2021/12/23 12:28:50;;;;;;;13.40;10.25;;;8.90;96.70;;;;;;4979815;28;20125;-73
2021/12/23 12:31:20;;;;;;;16.48;12.32;;;8.90;96.70;;;;;;4976474;28;20059;-72
2021/12/23 12:34:02;;;;;;;19.05;12.75;;;8.90;96.70;;;;;;4963311;28;20054;-73
2021/12/23 12:36:31;;;;;;;17.13;12.95;;;8.90;96.70;;;;;;4978724;28;20030;-72
2021/12/23 12:39:15;;;;;;;17.92;13.05;;;8.90;96.70;;;;;;4976805;28;20042;-72
2021/12/23 12:41:46;;;;;;;18.10;13.93;;;8.90;96.70;;;;;;4960006;28;20041;-72
2021/12/23 12:44:32;;;;;;;23.95;17.05;;;8.90;96.70;;;;;;4973408;28;20129;-72
2021/12/23 12:47:06;;;;;;;21.73;16.05;;;8.90;96.70;;;;;;4975198;28;20041;-72
2021/12/23 12:49:38;;;;;;;18.73;14.38;;;9.00;96.70;;;;;;4963972;28;20480;-72
2021/12/23 12:52:19;;;;;;;20.30;14.85;;;9.00;96.70;;;;;;4975282;28;20050;-73
2021/12/23 12:54:57;;;;;;;33.05;23.00;;;9.00;96.70;;;;;;4967382;28;20038;-72
2021/12/23 12:57:31;;;;;;;26.30;20.05;;;9.00;96.70;;;;;;4979953;28;20109;-72
2021/12/23 13:00:31;;;;;;;19.45;14.45;;;9.10;96.70;;;;;;4965147;28;20152;-73
2021/12/23 13:03:05;;;;;;;17.55;13.18;;;9.10;96.70;;;;;;4957456;28;20062;-71
2021/12/23 13:05:36;;;;;;;18.92;13.15;;;9.20;96.70;;;;;;4973582;28;20061;-71
2021/12/23 13:08:24;;;;;;;21.15;15.20;;;9.30;96.70;;;;;;4962450;28;20050;-72
2021/12/23 13:11:23;;;;;;;20.17;16.13;;;9.40;96.70;;;;;;4962522;28;20382;-72
2021/12/23 13:14:57;;;;;;;17.40;13.85;;;9.70;96.70;;;;;;4972478;28;20050;-71
2021/12/23 13:18:01;;;;;;;19.13;13.27;;;9.90;96.70;;;;;;4966032;28;20056;-71
2021/12/23 13:20:42;;;;;;;14.55;11.52;;;10.10;96.70;;;;;;4975778;28;20393;-72
2021/12/23 13:23:19;;;;;;;14.48;11.70;;;10.10;96.70;;;;;;4961300;28;20403;-72
2021/12/23 13:25:56;;;;;;;16.77;11.95;;;10.30;96.70;;;;;;4957459;28;20069;-72
2021/12/23 13:28:33;;;;;;;15.20;12.10;;;10.20;96.70;;;;;;4975912;28;20456;-72
2021/12/23 13:31:06;;;;;;;17.95;11.75;;;10.10;96.70;;;;;;4976769;28;20038;-71
2021/12/23 13:33:43;;;;;;;16.92;12.48;;;10.00;96.70;;;;;;4966006;28;20314;-72
2021/12/23 13:36:18;;;;;;;16.77;11.60;;;10.00;96.70;;;;;;4953360;28;20073;-72
2021/12/23 13:38:47;;;;;;;17.25;11.73;;;10.00;96.70;;;;;;4965917;28;20043;-72
2021/12/23 13:41:24;;;;;;;13.52;11.82;;;10.00;96.70;;;;;;4948485;28;20038;-72
2021/12/23 13:43:53;;;;;;;;;;;10.00;96.70;;;;;;4975522;28;20697;-72
2021/12/23 13:46:25;;;;;;;17.92;11.32;;;10.00;96.70;;;;;;4964135;28;19932;-72
2021/12/23 13:48:57;;;;;;;13.57;10.82;;;9.90;96.70;;;;;;4964240;28;20145;-73
2021/12/23 13:51:29;;;;;;;22.83;12.10;;;10.00;96.70;;;;;;4968788;28;20043;-71
2021/12/23 13:54:15;;;;;;;17.67;11.60;;;9.90;96.70;;;;;;4959217;28;20081;-72
2021/12/23 13:56:45;;;;;;;17.13;11.05;;;9.90;96.70;;;;;;4962769;28;20429;-73
2021/12/23 13:59:17;;;;;;;14.75;10.85;;;9.90;96.70;;;;;;4973464;28;20599;-72
2021/12/23 14:02:00;;;;;;;14.43;11.75;;;9.90;96.70;;;;;;4959829;28;20074;-73
2021/12/23 14:04:31;;;;;;;17.10;12.57;;;9.90;96.70;;;;;;4976965;28;20054;-72
2021/12/23 14:07:00;;;;;;;21.10;12.25;;;9.90;96.70;;;;;;4968252;28;20454;-72
2021/12/23 14:09:33;;;;;;;16.58;12.10;;;10.00;96.70;;;;;;4969170;28;20517;-72
2021/12/23 14:12:01;;;;;;;14.55;11.07;;;9.90;96.70;;;;;;4969711;28;20046;-71
2021/12/23 14:14:30;;;;;;;14.95;10.90;;;9.90;96.70;;;;;;4962451;28;20053;-71
2021/12/23 14:17:25;;;;;;;11.85;10.07;;;9.90;96.70;;;;;;4975958;28;20069;-72